Time;durP1;ratioP1;P1;durP2;ratioP2;P2;SDS_P1;SDS_P2;PMS_P1;PMS_P2;Temp;Humidity;BMP_temperature;BMP_pressure;BME280_temperature;BME280_humidity;BME280_pressure;Samples;Min_cycle;Max_cycle;Signal;HPM_P1;HPM_P2
2024/03/05 00:00:44;;;;;;;32.83;21.80;;;9.60;58.50;;;;;;4997518;28;20307;-55
2024/03/05 00:03:10;;;;;;;30.70;21.50;;;9.60;58.60;;;;;;4996816;28;20267;-57
2024/03/05 00:05:37;;;;;;;35.77;22.30;;;9.50;58.90;;;;;;4997279;28;20736;-58
2024/03/05 00:08:03;;;;;;;31.80;21.23;;;9.60;59.00;;;;;;4996502;28;20283;-58
2024/03/05 00:10:31;;;;;;;31.50;20.13;;;9.60;59.20;;;;;;4990003;28;20216;-59
2024/03/05 00:12:58;;;;;;;31.00;20.93;;;9.50;59.30;;;;;;4991050;28;20220;-58
2024/03/05 00:15:26;;;;;;;32.50;21.50;;;9.60;59.20;;;;;;4996626;28;20208;-59
2024/03/05 00:17:53;;;;;;;33.40;21.67;;;9.40;59.30;;;;;;4996375;28;20754;-60
2024/03/05 00:20:19;;;;;;;30.40;20.43;;;9.30;59.90;;;;;;4996051;28;20216;-57
2024/03/05 00:22:46;;;;;;;32.23;20.13;;;9.40;59.60;;;;;;4997012;28;20792;-58
2024/03/05 00:25:13;;;;;;;29.80;20.20;;;9.50;59.30;;;;;;4996492;28;20387;-58
2024/03/05 00:27:39;;;;;;;37.03;22.87;;;9.60;59.30;;;;;;4989679;28;20290;-58
2024/03/05 00:30:08;;;;;;;30.53;21.10;;;9.50;59.20;;;;;;4989391;28;20240;-58
2024/03/05 00:32:35;;;;;;;34.60;22.13;;;9.50;59.30;;;;;;4988768;28;20551;-58
2024/03/05 00:35:01;;;;;;;32.00;21.63;;;9.40;59.50;;;;;;4997211;28;20212;-58
2024/03/05 00:37:28;;;;;;;30.87;20.80;;;9.30;60.40;;;;;;4990535;28;20216;-58
2024/03/05 00:39:54;;;;;;;32.07;20.87;;;9.40;60.10;;;;;;4999188;28;20554;-58
2024/03/05 00:42:21;;;;;;;32.97;21.83;;;9.50;59.80;;;;;;5001281;28;20319;-57
2024/03/05 00:44:47;;;;;;;34.07;21.10;;;9.30;60.10;;;;;;4992035;28;20205;-58
2024/03/05 00:47:14;;;;;;;30.63;21.10;;;9.30;60.50;;;;;;4991114;28;20251;-59
2024/03/05 00:49:41;;;;;;;31.40;21.07;;;9.40;59.90;;;;;;4995110;28;20227;-57
2024/03/05 00:52:07;;;;;;;29.77;20.33;;;9.30;60.00;;;;;;4995611;28;20279;-58
2024/03/05 00:54:34;;;;;;;31.50;20.27;;;9.30;60.30;;;;;;4992806;28;20204;-57
2024/03/05 00:57:00;;;;;;;33.70;21.07;;;9.30;60.60;;;;;;4998913;28;20234;-58
2024/03/05 00:59:27;;;;;;;32.60;21.97;;;9.30;60.80;;;;;;4995298;28;20210;-58
2024/03/05 01:01:55;;;;;;;31.17;21.13;;;9.30;60.40;;;;;;4999004;28;20232;-58
2024/03/05 01:04:22;;;;;;;33.10;21.13;;;9.40;60.70;;;;;;5000145;28;20204;-57
2024/03/05 01:06:48;;;;;;;29.03;20.40;;;9.40;60.60;;;;;;4996628;28;20208;-59
2024/03/05 01:09:18;;;;;;;30.13;20.70;;;9.40;60.60;;;;;;4995586;28;20266;-60
2024/03/05 01:11:44;;;;;;;29.37;21.40;;;9.40;60.70;;;;;;4994564;28;20236;-58
2024/03/05 01:14:11;;;;;;;33.93;20.87;;;9.40;60.70;;;;;;4997442;28;20210;-58
2024/03/05 01:16:37;;;;;;;30.17;20.63;;;9.40;60.80;;;;;;4996386;28;20258;-58
2024/03/05 01:19:04;;;;;;;31.47;19.80;;;9.40;60.80;;;;;;4995974;28;20212;-58
2024/03/05 01:21:31;;;;;;;30.07;19.80;;;9.40;60.90;;;;;;4997192;28;20283;-58
2024/03/05 01:23:58;;;;;;;32.17;21.80;;;9.40;60.50;;;;;;4998046;28;20295;-58
2024/03/05 01:26:25;;;;;;;36.10;21.70;;;9.40;60.50;;;;;;4996984;28;20298;-58
2024/03/05 01:28:51;;;;;;;31.70;20.60;;;9.30;60.70;;;;;;4987965;28;20263;-58
2024/03/05 01:31:18;;;;;;;34.33;20.83;;;9.40;60.60;;;;;;4989856;28;20220;-58
2024/03/05 01:33:46;;;;;;;32.73;20.60;;;9.40;60.50;;;;;;4995331;28;20209;-58
2024/03/05 01:36:15;;;;;;;31.63;20.53;;;9.40;60.60;;;;;;4997067;28;20628;-58
2024/03/05 01:38:41;;;;;;;32.63;21.30;;;9.40;60.40;;;;;;4998169;28;20646;-58
2024/03/05 01:41:08;;;;;;;34.80;21.63;;;9.40;60.30;;;;;;4998287;28;20287;-60
2024/03/05 01:43:34;;;;;;;31.10;20.50;;;9.30;60.40;;;;;;4998371;28;20204;-57
2024/03/05 01:46:01;;;;;;;34.87;21.07;;;9.30;60.50;;;;;;4993467;28;20209;-58
2024/03/05 01:48:28;;;;;;;33.30;22.57;;;9.30;60.40;;;;;;4997675;28;20247;-58
2024/03/05 01:50:55;;;;;;;32.57;21.63;;;9.30;60.20;;;;;;4998347;28;20231;-59
2024/03/05 01:53:21;;;;;;;32.60;21.93;;;9.30;60.30;;;;;;4998207;28;20239;-58
2024/03/05 01:55:48;;;;;;;32.37;21.33;;;9.20;60.50;;;;;;4998282;28;20212;-56
2024/03/05 01:58:17;;;;;;;32.60;21.80;;;9.20;60.50;;;;;;4991561;28;20282;-58
2024/03/05 02:00:44;;;;;;;34.77;22.03;;;9.30;60.50;;;;;;4996638;28;20212;-59
2024/03/05 02:03:11;;;;;;;33.77;21.87;;;9.30;60.50;;;;;;4996405;28;20242;-58
2024/03/05 02:05:37;;;;;;;35.17;21.93;;;9.30;60.70;;;;;;4999452;28;20215;-59
2024/03/05 02:08:04;;;;;;;34.10;22.33;;;9.20;60.70;;;;;;4995398;28;20235;-60
2024/03/05 02:10:30;;;;;;;32.70;21.60;;;9.30;60.50;;;;;;4991195;28;20740;-57
2024/03/05 02:12:57;;;;;;;33.73;22.57;;;9.30;60.50;;;;;;4999452;28;20285;-57
2024/03/05 02:15:23;;;;;;;31.47;21.30;;;9.30;61.10;;;;;;4999576;28;20208;-58
2024/03/05 02:17:50;;;;;;;35.33;23.23;;;9.40;60.60;;;;;;4990674;28;20696;-58
2024/03/05 02:20:17;;;;;;;38.20;22.70;;;9.30;60.60;;;;;;4998113;28;20227;-57
2024/03/05 02:22:46;;;;;;;34.43;22.83;;;9.30;60.40;;;;;;4998761;28;20263;-60
2024/03/05 02:25:12;;;;;;;36.03;22.97;;;9.30;60.70;;;;;;4998308;28;20266;-59
2024/03/05 02:27:39;;;;;;;36.10;24.10;;;9.20;60.80;;;;;;4985265;28;20246;-60
2024/03/05 02:30:10;;;;;;;35.47;23.00;;;9.20;60.70;;;;;;4995427;28;20555;-58
2024/03/05 02:32:36;;;;;;;31.90;21.87;;;9.20;60.90;;;;;;4988058;28;20224;-57
2024/03/05 02:35:03;;;;;;;34.00;21.70;;;9.10;61.00;;;;;;4998584;28;20678;-58
2024/03/05 02:37:31;;;;;;;32.90;21.80;;;9.10;61.10;;;;;;4990630;28;20296;-59
2024/03/05 02:39:58;;;;;;;34.17;22.13;;;9.20;61.20;;;;;;4989873;28;20282;-58
2024/03/05 02:42:25;;;;;;;34.60;22.23;;;9.20;61.10;;;;;;4998707;28;20243;-58
2024/03/05 02:44:51;;;;;;;33.77;21.90;;;9.20;61.00;;;;;;4999668;28;20230;-59
2024/03/05 02:47:18;;;;;;;34.20;21.77;;;9.10;61.10;;;;;;4996085;28;20216;-59
2024/03/05 02:49:44;;;;;;;36.77;22.80;;;9.20;61.00;;;;;;4999339;28;20235;-58
2024/03/05 02:52:11;;;;;;;36.20;22.63;;;9.20;60.80;;;;;;4997633;28;20230;-59
2024/03/05 02:54:39;;;;;;;35.80;23.10;;;9.20;60.70;;;;;;4999710;28;20263;-58
2024/03/05 02:57:07;;;;;;;34.03;22.97;;;9.10;60.90;;;;;;4996726;28;20209;-58
2024/03/05 02:59:34;;;;;;;31.83;21.97;;;9.20;60.40;;;;;;4999578;28;20207;-58
2024/03/05 03:02:00;;;;;;;38.77;23.07;;;9.30;60.40;;;;;;4999939;28;20661;-60
2024/03/05 03:04:27;;;;;;;35.43;22.43;;;9.20;60.40;;;;;;5000560;28;20208;-59
2024/03/05 03:06:53;;;;;;;32.90;22.53;;;9.20;60.00;;;;;;5000845;28;20212;-58
2024/03/05 03:09:20;;;;;;;34.77;22.10;;;9.20;60.60;;;;;;4999723;28;20594;-58
2024/03/05 03:11:47;;;;;;;36.03;23.10;;;9.20;60.60;;;;;;5002113;28;20741;-60
2024/03/05 03:14:13;;;;;;;34.87;22.77;;;9.10;60.60;;;;;;4995455;28;20207;-58
2024/03/05 03:16:43;;;;;;;35.37;22.87;;;9.10;60.80;;;;;;5001700;28;20203;-59
2024/03/05 03:19:10;;;;;;;35.57;23.13;;;9.10;61.00;;;;;;4991059;28;20267;-60
2024/03/05 03:21:37;;;;;;;36.10;22.93;;;9.20;60.50;;;;;;4998973;28;20263;-58
2024/03/05 03:24:03;;;;;;;37.10;23.40;;;9.20;60.40;;;;;;4993470;28;20672;-60
2024/03/05 03:26:30;;;;;;;35.93;23.27;;;9.20;60.70;;;;;;4985230;28;20208;-60
2024/03/05 03:28:57;;;;;;;35.57;22.03;;;9.20;60.50;;;;;;4995582;28;20224;-58
2024/03/05 03:31:25;;;;;;;35.40;23.07;;;9.20;60.60;;;;;;4990811;28;20233;-58
2024/03/05 03:33:52;;;;;;;37.87;23.30;;;9.10;60.50;;;;;;4994731;28;20219;-58
2024/03/05 03:36:18;;;;;;;37.07;24.77;;;9.00;60.90;;;;;;5335571;23;20752;-60
2024/03/05 03:38:45;;;;;;;41.70;23.33;;;8.90;61.00;;;;;;5048776;28;20217;-54
2024/03/05 03:41:11;;;;;;;36.40;24.10;;;9.00;61.10;;;;;;5049519;28;20240;-57
2024/03/05 03:43:37;;;;;;;35.07;23.63;;;9.00;61.10;;;;;;5036899;28;20209;-59
2024/03/05 03:46:05;;;;;;;36.23;24.37;;;9.00;60.70;;;;;;5037804;28;20208;-58
2024/03/05 03:48:31;;;;;;;35.23;23.60;;;9.00;60.70;;;;;;5025407;28;20207;-58
2024/03/05 03:50:58;;;;;;;40.50;23.83;;;9.00;60.50;;;;;;5034085;28;20233;-60
2024/03/05 03:53:24;;;;;;;34.70;22.03;;;9.10;60.10;;;;;;5036534;28;20225;-58
2024/03/05 03:55:51;;;;;;;37.00;22.77;;;9.10;60.50;;;;;;5037103;28;20602;-60
2024/03/05 03:58:18;;;;;;;34.10;22.20;;;9.00;60.30;;;;;;5038123;28;20574;-56
2024/03/05 04:00:44;;;;;;;35.63;22.27;;;9.10;60.30;;;;;;5037507;28;20300;-57
2024/03/05 04:03:11;;;;;;;37.03;24.10;;;9.00;61.00;;;;;;5036854;28;20222;-57
2024/03/05 04:05:37;;;;;;;35.37;22.90;;;9.00;60.10;;;;;;5037759;28;20202;-58
2024/03/05 04:08:05;;;;;;;35.87;22.93;;;8.90;60.70;;;;;;5037469;28;20554;-59
2024/03/05 04:10:31;;;;;;;36.23;22.40;;;8.80;60.90;;;;;;5036724;28;20710;-59
2024/03/05 04:12:58;;;;;;;34.87;22.87;;;8.80;61.40;;;;;;5040293;28;20234;-58
2024/03/05 04:15:24;;;;;;;37.83;22.67;;;9.00;60.70;;;;;;5041832;28;20214;-60
2024/03/05 04:17:51;;;;;;;38.07;23.87;;;9.00;60.40;;;;;;5041037;28;20213;-58
2024/03/05 04:20:17;;;;;;;35.00;23.23;;;9.00;60.50;;;;;;5041514;28;20325;-60
2024/03/05 04:22:44;;;;;;;35.93;23.50;;;9.10;61.00;;;;;;5041884;28;20230;-58
2024/03/05 04:25:10;;;;;;;33.87;21.40;;;9.20;60.20;;;;;;5041670;28;20289;-60
2024/03/05 04:27:41;;;;;;;36.37;23.00;;;9.10;60.40;;;;;;5041722;28;20229;-59
2024/03/05 04:30:10;;;;;;;33.43;23.00;;;9.10;60.50;;;;;;5040687;28;20206;-59
2024/03/05 04:32:40;;;;;;;39.53;24.97;;;9.10;60.60;;;;;;5041452;28;20233;-58
2024/03/05 04:35:11;;;;;;;36.43;23.87;;;9.10;60.20;;;;;;5041348;28;20241;-58
2024/03/05 04:37:37;;;;;;;37.60;23.03;;;9.00;60.40;;;;;;5041014;28;20733;-58
2024/03/05 04:40:09;;;;;;;39.00;24.10;;;9.00;60.90;;;;;;5039837;28;20218;-58
2024/03/05 04:42:36;;;;;;;37.40;24.50;;;9.00;60.80;;;;;;5034501;28;20230;-58
2024/03/05 04:45:03;;;;;;;37.27;22.77;;;8.90;60.50;;;;;;5041455;28;20260;-57
2024/03/05 04:47:29;;;;;;;38.10;24.20;;;8.90;61.30;;;;;;5041192;28;20566;-56
2024/03/05 04:49:57;;;;;;;33.13;23.53;;;9.00;60.90;;;;;;5040718;28;20203;-58
2024/03/05 04:52:24;;;;;;;39.47;24.67;;;9.00;60.70;;;;;;5040620;28;20230;-58
2024/03/05 04:54:50;;;;;;;35.90;22.83;;;8.90;60.60;;;;;;5041881;28;20338;-58
2024/03/05 04:57:17;;;;;;;36.80;22.43;;;9.10;60.80;;;;;;5041469;28;20673;-57
2024/03/05 04:59:43;;;;;;;37.00;23.87;;;9.00;60.60;;;;;;5041640;28;20329;-59
2024/03/05 05:02:10;;;;;;;39.57;24.40;;;9.00;60.60;;;;;;5033186;28;20612;-58
2024/03/05 05:04:37;;;;;;;40.13;25.30;;;9.00;60.40;;;;;;5036118;28;20238;-59
2024/03/05 05:07:05;;;;;;;38.90;23.53;;;9.00;60.40;;;;;;5037768;28;20206;-56
2024/03/05 05:09:32;;;;;;;39.50;25.10;;;8.80;60.90;;;;;;5041510;28;20225;-58
2024/03/05 05:11:58;;;;;;;37.47;22.53;;;8.90;60.80;;;;;;5041455;28;20712;-57
2024/03/05 05:14:25;;;;;;;37.70;23.90;;;9.00;60.70;;;;;;5041504;28;20223;-58
2024/03/05 05:16:51;;;;;;;38.90;24.40;;;8.90;60.50;;;;;;5039632;28;20229;-59
2024/03/05 05:19:18;;;;;;;36.53;23.80;;;8.90;60.60;;;;;;5038875;28;20202;-59
2024/03/05 05:21:44;;;;;;;37.40;24.97;;;8.80;61.30;;;;;;5040901;28;20232;-58
2024/03/05 05:24:11;;;;;;;42.20;24.73;;;8.80;61.20;;;;;;5032696;28;20270;-57
2024/03/05 05:26:37;;;;;;;37.77;24.23;;;8.80;61.10;;;;;;5041320;28;20210;-60
2024/03/05 05:29:04;;;;;;;40.50;23.60;;;8.90;61.00;;;;;;5041811;28;20207;-59
2024/03/05 05:31:31;;;;;;;36.13;23.47;;;8.90;60.80;;;;;;5036683;28;20222;-59
2024/03/05 05:33:58;;;;;;;38.73;24.57;;;8.80;61.00;;;;;;5040891;28;20210;-58
2024/03/05 05:36:24;;;;;;;40.67;25.13;;;8.70;61.30;;;;;;5038277;28;20852;-57
2024/03/05 05:38:51;;;;;;;38.63;24.47;;;8.80;61.30;;;;;;5041553;28;20210;-56
2024/03/05 05:41:19;;;;;;;38.80;22.97;;;8.90;61.00;;;;;;5040273;28;20655;-57
2024/03/05 05:43:45;;;;;;;38.83;24.50;;;8.90;61.20;;;;;;5040276;28;20665;-58
2024/03/05 05:46:14;;;;;;;39.83;23.93;;;8.80;61.10;;;;;;5038962;28;20203;-57
2024/03/05 05:48:42;;;;;;;36.23;23.10;;;8.70;61.40;;;;;;5040584;28;20228;-59
2024/03/05 05:51:10;;;;;;;38.13;23.53;;;8.80;61.80;;;;;;5040083;28;20210;-58
2024/03/05 05:53:36;;;;;;;39.90;24.83;;;8.80;61.50;;;;;;5034924;28;20753;-58
2024/03/05 05:56:03;;;;;;;37.53;24.03;;;8.80;61.90;;;;;;5028170;28;20678;-59
2024/03/05 05:58:29;;;;;;;40.33;24.40;;;8.80;61.50;;;;;;5034689;28;20253;-58
2024/03/05 06:00:56;;;;;;;38.07;24.57;;;8.70;61.60;;;;;;5036854;28;20202;-59
2024/03/05 06:03:23;;;;;;;42.33;24.23;;;8.70;62.20;;;;;;5041616;28;20222;-58
2024/03/05 06:05:49;;;;;;;41.73;25.27;;;8.80;61.40;;;;;;5036645;28;20792;-59
2024/03/05 06:08:16;;;;;;;36.07;22.80;;;8.80;61.40;;;;;;5038571;28;20207;-59
2024/03/05 06:10:42;;;;;;;39.13;23.77;;;8.80;61.30;;;;;;5041693;28;20649;-58
2024/03/05 06:13:09;;;;;;;38.27;23.27;;;8.70;61.50;;;;;;5040582;28;20242;-58
2024/03/05 06:15:37;;;;;;;36.30;23.13;;;8.80;61.70;;;;;;5040164;28;20205;-58
2024/03/05 06:18:03;;;;;;;40.30;24.17;;;8.90;61.90;;;;;;5040950;28;20208;-60
2024/03/05 06:20:30;;;;;;;36.00;23.73;;;8.70;61.50;;;;;;5033796;28;20256;-58
2024/03/05 06:22:57;;;;;;;37.60;23.77;;;8.80;61.70;;;;;;5041432;28;20249;-60
2024/03/05 06:25:23;;;;;;;39.37;23.40;;;8.90;62.10;;;;;;5040346;28;20213;-59
2024/03/05 06:27:50;;;;;;;40.53;24.53;;;9.10;61.60;;;;;;5039848;28;20211;-58
2024/03/05 06:30:17;;;;;;;34.57;23.40;;;8.90;61.20;;;;;;5032565;28;20203;-60
2024/03/05 06:32:46;;;;;;;38.10;23.63;;;8.90;60.90;;;;;;5041571;28;20219;-58
2024/03/05 06:35:12;;;;;;;37.60;24.03;;;9.00;60.90;;;;;;5040396;28;20663;-58
2024/03/05 06:37:39;;;;;;;38.40;23.67;;;8.90;60.80;;;;;;5039335;28;20264;-58
2024/03/05 06:40:09;;;;;;;38.63;24.90;;;8.90;61.00;;;;;;5041162;28;20268;-58
2024/03/05 06:42:35;;;;;;;39.03;24.00;;;9.00;61.10;;;;;;5041080;28;20222;-60
2024/03/05 06:45:06;;;;;;;42.97;24.03;;;8.90;60.60;;;;;;5041470;28;20222;-61
2024/03/05 06:47:38;;;;;;;39.93;23.57;;;8.90;61.00;;;;;;5039906;28;20684;-60
2024/03/05 06:50:07;;;;;;;37.07;22.57;;;8.90;60.90;;;;;;5041292;28;20288;-61
2024/03/05 07:00:51;;;;;;;35.90;23.20;;;9.00;60.70;;;;;;5516047;23;20321;-60
2024/03/05 07:03:17;;;;;;;36.23;22.03;;;9.00;60.90;;;;;;4984734;28;20231;-58
2024/03/05 07:05:44;;;;;;;39.23;24.77;;;9.10;60.30;;;;;;4983571;28;21141;-60
2024/03/05 07:08:11;;;;;;;38.90;24.40;;;9.00;60.30;;;;;;4988027;28;20555;-59
2024/03/05 07:10:40;;;;;;;68.53;27.17;;;9.00;60.60;;;;;;4987778;28;20212;-58
2024/03/05 07:13:08;;;;;;;36.77;23.17;;;8.90;60.60;;;;;;4991511;28;20305;-59
2024/03/05 07:15:35;;;;;;;39.47;23.10;;;9.00;60.90;;;;;;4982897;28;20209;-59
2024/03/05 07:18:02;;;;;;;41.20;24.33;;;9.00;60.70;;;;;;4980822;28;20679;-58
2024/03/05 07:20:29;;;;;;;38.73;24.30;;;9.10;60.20;;;;;;4993017;28;20212;-59
2024/03/05 07:22:57;;;;;;;38.63;23.80;;;9.10;60.60;;;;;;4992015;28;20231;-59
2024/03/05 07:25:24;;;;;;;43.90;24.77;;;9.10;60.40;;;;;;4992427;28;20216;-58
2024/03/05 07:27:51;;;;;;;39.90;22.90;;;9.10;60.20;;;;;;4986866;28;20224;-58
2024/03/05 07:30:18;;;;;;;39.10;22.97;;;9.10;60.30;;;;;;4982674;28;20642;-58
2024/03/05 07:32:45;;;;;;;36.40;23.23;;;9.10;60.20;;;;;;4983948;28;20223;-59
2024/03/05 07:35:12;;;;;;;38.10;24.20;;;9.20;59.90;;;;;;4981481;28;20222;-59
2024/03/05 07:37:38;;;;;;;38.93;23.57;;;9.10;60.10;;;;;;4980076;28;20205;-59
2024/03/05 07:40:11;;;;;;;39.50;24.30;;;9.00;60.60;;;;;;4986932;28;20224;-59
2024/03/05 07:42:37;;;;;;;51.90;25.13;;;9.10;60.10;;;;;;4984244;28;20242;-59
2024/03/05 07:45:07;;;;;;;41.23;24.77;;;9.10;60.40;;;;;;4988090;28;20212;-59
2024/03/05 07:47:33;;;;;;;39.30;22.97;;;9.10;60.10;;;;;;4988133;28;20207;-59
2024/03/05 07:50:00;;;;;;;36.60;22.73;;;9.10;60.10;;;;;;4988714;28;20211;-58
2024/03/05 07:52:27;;;;;;;41.63;23.57;;;9.20;60.00;;;;;;4991746;28;20220;-57
2024/03/05 07:54:54;;;;;;;65.70;27.80;;;9.10;59.90;;;;;;4989243;28;20308;-58
2024/03/05 07:57:20;;;;;;;42.87;23.67;;;9.20;59.80;;;;;;4985630;28;20223;-67
2024/03/05 07:59:47;;;;;;;36.83;23.53;;;9.20;59.90;;;;;;4993435;28;20638;-59
2024/03/05 08:02:13;;;;;;;38.07;22.93;;;9.20;59.90;;;;;;4992459;28;20251;-59
2024/03/05 08:04:40;;;;;;;36.40;23.50;;;9.10;60.20;;;;;;4994477;28;20594;-58
2024/03/05 08:07:07;;;;;;;37.13;23.17;;;9.20;59.80;;;;;;4995417;28;20227;-59
2024/03/05 08:09:42;;;;;;;34.43;21.60;;;9.10;59.40;;;;;;5321462;23;20340;-58
2024/03/05 08:12:08;;;;;;;37.47;23.90;;;9.10;60.00;;;;;;5002815;28;20275;-56
2024/03/05 08:14:35;;;;;;;36.67;22.83;;;9.10;59.70;;;;;;5016347;28;20678;-60
2024/03/05 08:17:03;;;;;;;39.07;23.50;;;9.00;60.00;;;;;;5016944;28;20253;-59
2024/03/05 08:19:29;;;;;;;38.40;23.83;;;9.00;59.80;;;;;;5019629;28;20601;-59
2024/03/05 08:21:56;;;;;;;39.83;23.33;;;9.00;59.90;;;;;;5019819;28;20318;-59
2024/03/05 08:24:22;;;;;;;40.60;23.37;;;9.10;59.50;;;;;;5015823;28;20286;-60
2024/03/05 08:26:49;;;;;;;38.70;24.53;;;9.20;59.50;;;;;;5016869;28;20208;-56
2024/03/05 08:29:15;;;;;;;40.40;23.67;;;9.20;59.40;;;;;;5017549;28;20214;-58
2024/03/05 08:31:42;;;;;;;37.13;23.50;;;9.20;59.50;;;;;;5005669;28;20235;-57
2024/03/05 08:34:08;;;;;;;41.73;23.97;;;9.20;59.50;;;;;;4999517;28;20294;-59
2024/03/05 08:36:36;;;;;;;37.43;24.03;;;9.20;59.90;;;;;;5014882;28;20208;-58
2024/03/05 08:39:04;;;;;;;37.70;23.13;;;9.20;59.80;;;;;;5004988;28;20207;-59
2024/03/05 08:41:31;;;;;;;39.80;23.60;;;9.30;59.90;;;;;;5008913;28;20298;-58
2024/03/05 08:43:57;;;;;;;40.93;22.90;;;9.30;59.60;;;;;;5008825;28;20250;-59
2024/03/05 08:46:24;;;;;;;39.03;24.03;;;9.30;59.90;;;;;;5011497;28;20238;-58
2024/03/05 08:48:50;;;;;;;36.30;21.83;;;9.20;60.30;;;;;;5008384;28;20279;-57
2024/03/05 08:51:17;;;;;;;39.00;24.37;;;9.20;59.90;;;;;;5009785;28;20231;-59
2024/03/05 08:53:44;;;;;;;34.77;22.13;;;9.20;60.00;;;;;;5013577;28;20214;-60
2024/03/05 08:56:11;;;;;;;34.40;21.30;;;9.20;59.90;;;;;;5007742;28;20205;-58
2024/03/05 08:58:38;;;;;;;41.50;21.80;;;9.30;59.50;;;;;;5006473;28;20204;-57
2024/03/05 09:01:06;;;;;;;35.43;22.27;;;9.30;59.90;;;;;;5009724;28;20210;-59
2024/03/05 09:03:33;;;;;;;36.47;21.93;;;9.20;60.10;;;;;;5013313;28;20593;-57
2024/03/05 09:05:59;;;;;;;31.27;20.00;;;9.30;59.90;;;;;;5008394;28;20227;-53
2024/03/05 09:08:25;;;;;;;29.93;17.03;;;9.20;59.50;;;;;;5353785;23;20262;-57
2024/03/05 09:10:52;;;;;;;23.67;15.67;;;9.20;59.10;;;;;;5002757;28;20282;-56
2024/03/05 09:13:18;;;;;;;23.67;14.83;;;9.10;59.20;;;;;;4993478;28;20246;-55
2024/03/05 09:15:45;;;;;;;22.93;14.27;;;9.10;58.80;;;;;;4989526;28;20238;-52
2024/03/05 09:18:13;;;;;;;19.27;13.70;;;9.20;58.30;;;;;;4995251;28;20286;-55
2024/03/05 09:20:41;;;;;;;17.80;11.80;;;9.10;58.40;;;;;;4998576;28;20220;-56
2024/03/05 09:23:08;;;;;;;18.07;11.53;;;9.10;58.10;;;;;;4995459;28;20235;-55
2024/03/05 09:25:36;;;;;;;17.23;12.30;;;9.00;57.90;;;;;;4991260;28;20220;-58
2024/03/05 09:28:04;;;;;;;18.93;12.80;;;9.10;57.70;;;;;;4991557;28;20204;-62
2024/03/05 09:30:32;;;;;;;14.90;11.10;;;9.00;58.00;;;;;;4989713;28;20204;-57
2024/03/05 09:32:59;;;;;;;16.83;11.40;;;9.10;56.80;;;;;;4981468;28;20226;-59
2024/03/05 09:35:28;;;;;;;17.20;11.47;;;9.10;57.10;;;;;;4996196;28;20219;-62
2024/03/05 09:37:54;;;;;;;17.43;10.43;;;9.00;57.30;;;;;;4988738;28;20209;-56
2024/03/05 09:40:23;;;;;;;16.20;11.20;;;9.10;57.60;;;;;;4994124;28;20248;-59
2024/03/05 09:42:49;;;;;;;17.00;10.77;;;9.00;58.00;;;;;;4995956;28;20263;-59
2024/03/05 09:45:17;;;;;;;12.23;9.47;;;9.00;58.80;;;;;;4996996;28;20571;-58
2024/03/05 09:47:43;;;;;;;14.40;11.10;;;9.10;59.60;;;;;;4997436;28;20262;-57
2024/03/05 09:50:11;;;;;;;13.77;10.40;;;9.00;59.50;;;;;;4996533;28;20211;-57
2024/03/05 09:52:37;;;;;;;14.50;10.63;;;9.10;60.40;;;;;;4990449;28;20435;-58
2024/03/05 09:55:04;;;;;;;16.07;9.70;;;9.20;59.80;;;;;;4996922;28;20208;-58
2024/03/05 09:57:30;;;;;;;13.67;10.03;;;9.10;60.70;;;;;;4988334;28;20218;-58
2024/03/05 09:59:57;;;;;;;12.90;9.10;;;9.10;59.70;;;;;;4996870;28;20212;-59
2024/03/05 10:02:23;;;;;;;10.97;8.53;;;9.10;60.30;;;;;;4996304;28;20282;-57
2024/03/05 10:04:50;;;;;;;12.10;8.70;;;9.10;60.30;;;;;;4997167;28;20902;-58
2024/03/05 10:07:16;;;;;;;13.50;9.17;;;9.20;59.70;;;;;;4995235;28;20262;-58
2024/03/05 10:09:43;;;;;;;11.93;8.93;;;9.30;59.60;;;;;;4992853;28;20216;-58
2024/03/05 10:12:09;;;;;;;10.43;8.13;;;9.30;58.30;;;;;;4994333;28;20228;-54
2024/03/05 10:14:36;;;;;;;11.70;9.30;;;9.50;57.80;;;;;;4987940;28;20204;-56
2024/03/05 10:17:03;;;;;;;13.47;9.73;;;9.50;57.90;;;;;;4995216;28;20263;-58
2024/03/05 10:19:29;;;;;;;11.30;8.87;;;9.60;58.50;;;;;;4986716;28;20217;-58
2024/03/05 10:21:56;;;;;;;12.30;8.40;;;9.50;57.40;;;;;;4992501;28;20228;-60
2024/03/05 10:24:22;;;;;;;10.97;8.83;;;9.60;57.20;;;;;;4992954;28;20282;-58
2024/03/05 10:26:49;;;;;;;9.87;8.20;;;9.60;56.30;;;;;;4999780;28;20239;-58
2024/03/05 10:29:16;;;;;;;14.00;8.60;;;9.70;56.70;;;;;;4998744;28;20213;-57
2024/03/05 10:31:44;;;;;;;12.17;8.43;;;9.80;55.40;;;;;;4992213;28;20240;-58
2024/03/05 10:34:11;;;;;;;10.87;8.20;;;9.80;54.90;;;;;;4990057;28;20208;-56
2024/03/05 10:36:38;;;;;;;11.00;8.07;;;9.70;55.50;;;;;;4992749;28;20213;-56
2024/03/05 10:39:05;;;;;;;12.87;8.37;;;9.70;55.50;;;;;;4990658;28;20236;-57
2024/03/05 10:41:31;;;;;;;15.03;9.13;;;9.90;55.70;;;;;;4993027;28;20229;-58
2024/03/05 10:44:00;;;;;;;12.30;8.80;;;9.80;55.80;;;;;;4994299;28;20228;-58
2024/03/05 10:46:27;;;;;;;12.33;8.87;;;9.80;56.10;;;;;;4986732;28;20201;-58
2024/03/05 10:48:54;;;;;;;12.37;9.03;;;9.80;55.80;;;;;;4994999;28;20225;-57
2024/03/05 10:51:20;;;;;;;13.20;9.60;;;9.90;55.20;;;;;;4994019;28;20286;-58
2024/03/05 10:53:47;;;;;;;13.30;10.00;;;10.00;54.80;;;;;;4996665;28;20280;-58
2024/03/05 10:56:13;;;;;;;13.73;10.13;;;10.00;55.40;;;;;;4992591;28;20207;-58
2024/03/05 11:01:26;;;;;;;14.07;9.63;;;10.10;54.90;;;;;;4997117;28;20287;-58
2024/03/05 11:03:55;;;;;;;13.50;9.40;;;10.20;54.50;;;;;;4996421;28;20605;-58
2024/03/05 11:06:21;;;;;;;16.00;10.27;;;10.20;54.90;;;;;;4994518;28;20212;-58
2024/03/05 11:08:48;;;;;;;13.70;10.47;;;10.30;55.00;;;;;;4991952;28;20213;-58
2024/03/05 11:11:14;;;;;;;14.47;10.37;;;10.30;54.80;;;;;;4991689;28;20321;-58
2024/03/05 11:13:42;;;;;;;16.60;10.23;;;10.30;55.40;;;;;;4988272;28;20202;-57
2024/03/05 11:16:08;;;;;;;16.43;11.07;;;10.30;54.70;;;;;;4991383;28;20202;-58
2024/03/05 11:18:35;;;;;;;16.23;11.20;;;10.20;54.70;;;;;;4993597;28;20202;-60
2024/03/05 11:21:01;;;;;;;16.23;10.80;;;10.20;54.60;;;;;;4987685;28;20208;-58
2024/03/05 11:23:29;;;;;;;17.23;11.40;;;10.20;54.80;;;;;;4991543;28;20225;-58
2024/03/05 11:25:55;;;;;;;16.97;11.67;;;10.20;55.40;;;;;;4996157;28;20221;-58
2024/03/05 11:28:22;;;;;;;15.93;11.23;;;10.20;55.10;;;;;;4990536;28;20381;-58
2024/03/05 11:30:49;;;;;;;16.27;11.77;;;10.20;55.20;;;;;;4988226;28;20211;-56
2024/03/05 11:33:18;;;;;;;17.13;12.10;;;10.30;54.80;;;;;;4989800;28;20654;-57
2024/03/05 11:35:45;;;;;;;15.17;11.87;;;10.30;55.00;;;;;;4996437;28;20217;-59
2024/03/05 11:38:13;;;;;;;16.87;11.83;;;10.40;54.40;;;;;;4987609;28;20218;-57
2024/03/05 11:40:40;;;;;;;15.67;11.70;;;10.40;54.20;;;;;;4986825;28;20293;-57
2024/03/05 11:43:07;;;;;;;13.57;10.70;;;10.40;54.70;;;;;;4993564;28;20678;-57
2024/03/05 11:45:32;;;;;;;17.47;11.43;;;10.40;54.60;;;;;;4993372;28;20218;-57
2024/03/05 11:47:59;;;;;;;15.03;11.07;;;10.40;54.40;;;;;;4991388;28;20203;-58
2024/03/05 11:50:26;;;;;;;15.63;11.27;;;10.40;55.00;;;;;;4997653;28;20297;-57
2024/03/05 11:52:52;;;;;;;14.47;11.37;;;10.40;54.50;;;;;;4996452;28;20649;-58
2024/03/05 11:55:19;;;;;;;15.20;11.63;;;10.40;54.40;;;;;;4992808;28;20252;-57
2024/03/05 11:57:45;;;;;;;15.70;11.07;;;10.40;54.50;;;;;;4993790;28;20292;-58
2024/03/05 12:00:12;;;;;;;15.87;11.47;;;10.40;53.90;;;;;;4993874;28;20239;-58
2024/03/05 12:02:38;;;;;;;15.67;11.83;;;10.40;53.90;;;;;;4994383;28;20241;-58
2024/03/05 12:05:05;;;;;;;15.63;11.70;;;10.50;53.90;;;;;;4993797;28;20643;-58
2024/03/05 12:07:33;;;;;;;15.37;11.53;;;10.50;53.10;;;;;;4992838;28;20201;-58
2024/03/05 12:09:59;;;;;;;15.80;11.80;;;10.50;53.30;;;;;;4989686;28;20217;-60
2024/03/05 12:12:26;;;;;;;15.63;12.00;;;10.40;53.30;;;;;;4994204;28;20261;-58
2024/03/05 12:14:52;;;;;;;16.93;12.90;;;10.50;53.30;;;;;;4992024;28;20227;-58
2024/03/05 12:17:19;;;;;;;15.83;12.60;;;10.40;53.00;;;;;;4992832;28;20207;-58
2024/03/05 12:19:47;;;;;;;18.73;12.70;;;10.50;52.80;;;;;;4994192;28;20237;-58
2024/03/05 12:22:13;;;;;;;15.30;11.93;;;10.50;53.10;;;;;;4990982;28;20647;-58
2024/03/05 12:24:40;;;;;;;15.17;11.77;;;10.50;52.90;;;;;;4993976;28;20280;-58
2024/03/05 12:27:07;;;;;;;17.20;12.57;;;10.50;53.10;;;;;;4991054;28;20207;-57
2024/03/05 12:29:33;;;;;;;13.90;12.17;;;10.50;53.00;;;;;;4995080;28;20210;-58
2024/03/05 12:32:00;;;;;;;14.37;12.03;;;10.50;53.20;;;;;;4991770;28;20254;-61
2024/03/05 12:34:27;;;;;;;15.43;12.60;;;10.40;53.10;;;;;;4995444;28;20226;-58
2024/03/05 12:36:54;;;;;;;16.70;12.10;;;10.40;53.40;;;;;;4994695;28;20301;-56
2024/03/05 12:39:21;;;;;;;14.93;12.03;;;10.40;53.80;;;;;;4997458;28;20677;-59
2024/03/05 12:41:48;;;;;;;17.50;12.63;;;10.30;53.80;;;;;;4994477;28;20225;-59
2024/03/05 12:44:14;;;;;;;17.83;13.40;;;10.30;53.80;;;;;;4997649;28;20232;-59